sensor_id;sensor_type;location;lat;lon;timestamp;P1;durP1;ratioP1;P2;durP2;ratioP2
8556;SDS011;4316;53.840;10.762;2022-12-18T00:00:42;20.80;;;14.37;;
8556;SDS011;4316;53.840;10.762;2022-12-18T00:03:09;21.43;;;14.73;;
8556;SDS011;4316;53.840;10.762;2022-12-18T00:05:35;20.60;;;15.10;;
8556;SDS011;4316;53.840;10.762;2022-12-18T00:08:01;23.90;;;14.50;;
8556;SDS011;4316;53.840;10.762;2022-12-18T00:10:28;24.90;;;15.40;;
8556;SDS011;4316;53.840;10.762;2022-12-18T00:12:53;24.53;;;15.13;;
8556;SDS011;4316;53.840;10.762;2022-12-18T00:15:19;26.07;;;16.10;;
8556;SDS011;4316;53.840;10.762;2022-12-18T00:17:45;26.13;;;16.17;;
8556;SDS011;4316;53.840;10.762;2022-12-18T00:20:11;22.13;;;15.57;;
8556;SDS011;4316;53.840;10.762;2022-12-18T00:22:36;24.40;;;16.63;;
8556;SDS011;4316;53.840;10.762;2022-12-18T00:25:02;22.70;;;16.63;;
8556;SDS011;4316;53.840;10.762;2022-12-18T00:27:28;21.67;;;15.80;;
8556;SDS011;4316;53.840;10.762;2022-12-18T00:29:53;28.37;;;17.07;;
8556;SDS011;4316;53.840;10.762;2022-12-18T00:32:19;33.97;;;18.43;;
8556;SDS011;4316;53.840;10.762;2022-12-18T00:34:45;24.30;;;15.73;;
8556;SDS011;4316;53.840;10.762;2022-12-18T00:37:10;29.10;;;18.63;;
8556;SDS011;4316;53.840;10.762;2022-12-18T00:39:36;27.70;;;16.77;;
8556;SDS011;4316;53.840;10.762;2022-12-18T00:42:01;22.27;;;15.23;;
8556;SDS011;4316;53.840;10.762;2022-12-18T00:44:46;24.10;;;16.43;;
8556;SDS011;4316;53.840;10.762;2022-12-18T00:47:12;23.70;;;14.50;;
8556;SDS011;4316;53.840;10.762;2022-12-18T00:49:38;22.93;;;15.40;;
8556;SDS011;4316;53.840;10.762;2022-12-18T00:52:03;22.87;;;15.97;;
8556;SDS011;4316;53.840;10.762;2022-12-18T00:54:29;23.27;;;16.00;;
8556;SDS011;4316;53.840;10.762;2022-12-18T00:56:55;28.60;;;16.57;;
8556;SDS011;4316;53.840;10.762;2022-12-18T00:59:21;32.43;;;18.73;;
8556;SDS011;4316;53.840;10.762;2022-12-18T01:01:46;25.13;;;16.27;;
8556;SDS011;4316;53.840;10.762;2022-12-18T01:04:12;26.57;;;16.93;;
8556;SDS011;4316;53.840;10.762;2022-12-18T01:06:38;25.57;;;15.77;;
8556;SDS011;4316;53.840;10.762;2022-12-18T01:09:04;25.77;;;16.20;;
8556;SDS011;4316;53.840;10.762;2022-12-18T01:11:30;23.80;;;15.03;;
8556;SDS011;4316;53.840;10.762;2022-12-18T01:13:55;28.00;;;15.53;;
8556;SDS011;4316;53.840;10.762;2022-12-18T01:16:27;26.07;;;16.20;;
8556;SDS011;4316;53.840;10.762;2022-12-18T01:18:53;20.93;;;14.63;;
8556;SDS011;4316;53.840;10.762;2022-12-18T01:21:19;20.40;;;15.30;;
8556;SDS011;4316;53.840;10.762;2022-12-18T01:23:46;21.63;;;14.47;;
8556;SDS011;4316;53.840;10.762;2022-12-18T01:26:13;26.70;;;16.53;;
8556;SDS011;4316;53.840;10.762;2022-12-18T01:28:39;25.33;;;17.10;;
8556;SDS011;4316;53.840;10.762;2022-12-18T01:31:12;26.00;;;16.33;;
8556;SDS011;4316;53.840;10.762;2022-12-18T01:33:39;27.80;;;18.27;;
8556;SDS011;4316;53.840;10.762;2022-12-18T01:36:05;34.37;;;19.10;;
8556;SDS011;4316;53.840;10.762;2022-12-18T01:38:30;26.73;;;16.87;;
8556;SDS011;4316;53.840;10.762;2022-12-18T01:41:00;21.13;;;16.07;;
8556;SDS011;4316;53.840;10.762;2022-12-18T01:46:13;34.30;;;18.40;;
8556;SDS011;4316;53.840;10.762;2022-12-18T01:48:40;24.67;;;16.37;;
8556;SDS011;4316;53.840;10.762;2022-12-18T01:51:08;29.53;;;16.73;;
8556;SDS011;4316;53.840;10.762;2022-12-18T01:53:35;26.47;;;16.93;;
8556;SDS011;4316;53.840;10.762;2022-12-18T01:56:02;27.20;;;17.63;;
8556;SDS011;4316;53.840;10.762;2022-12-18T01:58:36;25.97;;;17.50;;
8556;SDS011;4316;53.840;10.762;2022-12-18T02:01:13;29.20;;;17.77;;
8556;SDS011;4316;53.840;10.762;2022-12-18T02:03:41;36.53;;;19.83;;
8556;SDS011;4316;53.840;10.762;2022-12-18T02:08:46;29.60;;;17.57;;
8556;SDS011;4316;53.840;10.762;2022-12-18T02:14:04;26.13;;;17.90;;
8556;SDS011;4316;53.840;10.762;2022-12-18T02:19:39;25.23;;;17.30;;
8556;SDS011;4316;53.840;10.762;2022-12-18T02:28:44;28.70;;;18.33;;
8556;SDS011;4316;53.840;10.762;2022-12-18T02:31:24;26.90;;;16.97;;
8556;SDS011;4316;53.840;10.762;2022-12-18T02:33:52;23.97;;;15.63;;
8556;SDS011;4316;53.840;10.762;2022-12-18T02:36:23;26.67;;;16.27;;
8556;SDS011;4316;53.840;10.762;2022-12-18T02:38:53;23.80;;;15.97;;
8556;SDS011;4316;53.840;10.762;2022-12-18T02:41:23;23.43;;;16.27;;
8556;SDS011;4316;53.840;10.762;2022-12-18T02:43:53;27.97;;;16.17;;
8556;SDS011;4316;53.840;10.762;2022-12-18T02:46:40;28.20;;;16.60;;
8556;SDS011;4316;53.840;10.762;2022-12-18T02:49:14;24.83;;;16.87;;
8556;SDS011;4316;53.840;10.762;2022-12-18T02:54:55;23.70;;;16.17;;
8556;SDS011;4316;53.840;10.762;2022-12-18T02:57:34;25.37;;;16.13;;
8556;SDS011;4316;53.840;10.762;2022-12-18T03:00:10;26.20;;;16.43;;
8556;SDS011;4316;53.840;10.762;2022-12-18T03:02:59;24.03;;;15.33;;
8556;SDS011;4316;53.840;10.762;2022-12-18T03:05:40;29.20;;;17.37;;
8556;SDS011;4316;53.840;10.762;2022-12-18T03:08:18;21.47;;;14.63;;
8556;SDS011;4316;53.840;10.762;2022-12-18T03:11:02;23.90;;;15.77;;
8556;SDS011;4316;53.840;10.762;2022-12-18T03:13:35;23.43;;;14.97;;
8556;SDS011;4316;53.840;10.762;2022-12-18T03:16:02;23.80;;;15.67;;
8556;SDS011;4316;53.840;10.762;2022-12-18T03:18:38;27.77;;;15.63;;
8556;SDS011;4316;53.840;10.762;2022-12-18T03:21:12;29.07;;;15.07;;
8556;SDS011;4316;53.840;10.762;2022-12-18T03:23:42;29.57;;;16.37;;
8556;SDS011;4316;53.840;10.762;2022-12-18T03:26:13;21.50;;;15.20;;
8556;SDS011;4316;53.840;10.762;2022-12-18T03:28:46;25.27;;;15.90;;
8556;SDS011;4316;53.840;10.762;2022-12-18T03:31:18;31.77;;;16.97;;
8556;SDS011;4316;53.840;10.762;2022-12-18T03:33:54;24.13;;;15.57;;
8556;SDS011;4316;53.840;10.762;2022-12-18T03:36:30;22.83;;;15.93;;
8556;SDS011;4316;53.840;10.762;2022-12-18T03:38:57;22.53;;;15.43;;
8556;SDS011;4316;53.840;10.762;2022-12-18T03:41:32;24.20;;;16.27;;
8556;SDS011;4316;53.840;10.762;2022-12-18T03:44:35;27.40;;;15.50;;
8556;SDS011;4316;53.840;10.762;2022-12-18T03:47:16;27.10;;;16.30;;
8556;SDS011;4316;53.840;10.762;2022-12-18T03:49:57;20.13;;;14.40;;
8556;SDS011;4316;53.840;10.762;2022-12-18T03:52:36;25.73;;;15.73;;
8556;SDS011;4316;53.840;10.762;2022-12-18T03:55:21;24.33;;;15.43;;
8556;SDS011;4316;53.840;10.762;2022-12-18T03:57:56;27.20;;;16.83;;
8556;SDS011;4316;53.840;10.762;2022-12-18T04:00:28;26.17;;;16.93;;
8556;SDS011;4316;53.840;10.762;2022-12-18T04:03:03;28.50;;;17.13;;
8556;SDS011;4316;53.840;10.762;2022-12-18T04:05:37;27.83;;;16.57;;
8556;SDS011;4316;53.840;10.762;2022-12-18T04:08:05;23.67;;;16.37;;
8556;SDS011;4316;53.840;10.762;2022-12-18T04:10:37;27.13;;;16.73;;
8556;SDS011;4316;53.840;10.762;2022-12-18T04:13:03;28.57;;;16.10;;
8556;SDS011;4316;53.840;10.762;2022-12-18T04:15:29;30.83;;;16.90;;
8556;SDS011;4316;53.840;10.762;2022-12-18T04:17:57;26.67;;;16.20;;
8556;SDS011;4316;53.840;10.762;2022-12-18T04:20:26;30.23;;;18.00;;
8556;SDS011;4316;53.840;10.762;2022-12-18T04:22:52;32.17;;;19.27;;
8556;SDS011;4316;53.840;10.762;2022-12-18T04:25:18;33.77;;;18.50;;
8556;SDS011;4316;53.840;10.762;2022-12-18T04:28:03;33.87;;;18.73;;
8556;SDS011;4316;53.840;10.762;2022-12-18T04:30:30;38.03;;;20.83;;
8556;SDS011;4316;53.840;10.762;2022-12-18T04:32:56;31.90;;;18.37;;
8556;SDS011;4316;53.840;10.762;2022-12-18T04:35:22;34.13;;;19.17;;
8556;SDS011;4316;53.840;10.762;2022-12-18T04:37:48;31.67;;;19.50;;
8556;SDS011;4316;53.840;10.762;2022-12-18T04:40:14;33.97;;;19.63;;
8556;SDS011;4316;53.840;10.762;2022-12-18T04:42:43;28.83;;;18.30;;
8556;SDS011;4316;53.840;10.762;2022-12-18T04:45:09;34.73;;;20.13;;
8556;SDS011;4316;53.840;10.762;2022-12-18T04:47:35;30.20;;;17.70;;
8556;SDS011;4316;53.840;10.762;2022-12-18T04:50:01;32.37;;;18.77;;
8556;SDS011;4316;53.840;10.762;2022-12-18T04:52:27;30.63;;;18.27;;
8556;SDS011;4316;53.840;10.762;2022-12-18T04:54:52;33.83;;;20.37;;
8556;SDS011;4316;53.840;10.762;2022-12-18T04:57:18;28.20;;;17.20;;
8556;SDS011;4316;53.840;10.762;2022-12-18T04:59:44;32.63;;;18.10;;
8556;SDS011;4316;53.840;10.762;2022-12-18T05:02:10;25.90;;;16.13;;
8556;SDS011;4316;53.840;10.762;2022-12-18T05:04:35;25.77;;;17.30;;
8556;SDS011;4316;53.840;10.762;2022-12-18T05:07:01;25.90;;;15.87;;
8556;SDS011;4316;53.840;10.762;2022-12-18T05:09:26;32.37;;;17.30;;
8556;SDS011;4316;53.840;10.762;2022-12-18T05:11:52;30.90;;;17.53;;
8556;SDS011;4316;53.840;10.762;2022-12-18T05:14:18;25.77;;;15.80;;
8556;SDS011;4316;53.840;10.762;2022-12-18T05:16:44;29.13;;;15.80;;
8556;SDS011;4316;53.840;10.762;2022-12-18T05:19:09;27.23;;;17.07;;
8556;SDS011;4316;53.840;10.762;2022-12-18T05:21:35;30.13;;;17.80;;
8556;SDS011;4316;53.840;10.762;2022-12-18T05:24:01;38.53;;;18.57;;
8556;SDS011;4316;53.840;10.762;2022-12-18T05:26:26;28.47;;;16.20;;
8556;SDS011;4316;53.840;10.762;2022-12-18T05:28:52;32.23;;;18.07;;
8556;SDS011;4316;53.840;10.762;2022-12-18T05:31:18;28.80;;;16.77;;
8556;SDS011;4316;53.840;10.762;2022-12-18T05:33:43;26.13;;;15.43;;
8556;SDS011;4316;53.840;10.762;2022-12-18T05:36:09;30.23;;;16.50;;
8556;SDS011;4316;53.840;10.762;2022-12-18T05:38:36;33.07;;;15.93;;
8556;SDS011;4316;53.840;10.762;2022-12-18T05:41:03;28.53;;;16.07;;
8556;SDS011;4316;53.840;10.762;2022-12-18T05:43:29;23.17;;;14.23;;
8556;SDS011;4316;53.840;10.762;2022-12-18T05:45:55;30.27;;;18.17;;
8556;SDS011;4316;53.840;10.762;2022-12-18T05:48:22;26.03;;;15.83;;
8556;SDS011;4316;53.840;10.762;2022-12-18T05:50:48;27.70;;;16.03;;
8556;SDS011;4316;53.840;10.762;2022-12-18T05:53:16;28.33;;;16.40;;
8556;SDS011;4316;53.840;10.762;2022-12-18T05:55:43;27.77;;;16.17;;
8556;SDS011;4316;53.840;10.762;2022-12-18T05:58:09;32.10;;;16.60;;
8556;SDS011;4316;53.840;10.762;2022-12-18T06:00:37;23.60;;;14.63;;
8556;SDS011;4316;53.840;10.762;2022-12-18T06:03:07;22.43;;;15.07;;
8556;SDS011;4316;53.840;10.762;2022-12-18T06:05:37;25.97;;;16.07;;
8556;SDS011;4316;53.840;10.762;2022-12-18T06:08:04;26.63;;;15.17;;
8556;SDS011;4316;53.840;10.762;2022-12-18T06:10:30;28.03;;;14.53;;
8556;SDS011;4316;53.840;10.762;2022-12-18T06:12:56;27.20;;;15.30;;
8556;SDS011;4316;53.840;10.762;2022-12-18T06:15:21;26.17;;;15.70;;
8556;SDS011;4316;53.840;10.762;2022-12-18T06:17:47;29.00;;;15.20;;
8556;SDS011;4316;53.840;10.762;2022-12-18T06:20:12;27.47;;;15.53;;
8556;SDS011;4316;53.840;10.762;2022-12-18T06:22:38;26.33;;;15.57;;
8556;SDS011;4316;53.840;10.762;2022-12-18T06:25:04;29.80;;;15.17;;
8556;SDS011;4316;53.840;10.762;2022-12-18T06:27:30;26.47;;;14.67;;
8556;SDS011;4316;53.840;10.762;2022-12-18T06:29:58;25.57;;;14.73;;
8556;SDS011;4316;53.840;10.762;2022-12-18T06:32:24;24.60;;;14.13;;
8556;SDS011;4316;53.840;10.762;2022-12-18T06:34:49;33.23;;;14.90;;
8556;SDS011;4316;53.840;10.762;2022-12-18T06:37:15;26.67;;;15.27;;
8556;SDS011;4316;53.840;10.762;2022-12-18T06:39:41;30.03;;;15.40;;
8556;SDS011;4316;53.840;10.762;2022-12-18T06:42:06;27.27;;;15.07;;
8556;SDS011;4316;53.840;10.762;2022-12-18T06:44:32;22.17;;;14.10;;
8556;SDS011;4316;53.840;10.762;2022-12-18T06:46:57;32.57;;;15.57;;
8556;SDS011;4316;53.840;10.762;2022-12-18T06:49:23;23.60;;;14.33;;
8556;SDS011;4316;53.840;10.762;2022-12-18T06:51:49;29.60;;;14.90;;
8556;SDS011;4316;53.840;10.762;2022-12-18T06:54:14;26.47;;;14.70;;
8556;SDS011;4316;53.840;10.762;2022-12-18T06:56:40;25.47;;;14.03;;
8556;SDS011;4316;53.840;10.762;2022-12-18T06:59:05;25.37;;;14.80;;
8556;SDS011;4316;53.840;10.762;2022-12-18T07:01:31;31.97;;;16.73;;
8556;SDS011;4316;53.840;10.762;2022-12-18T07:03:57;30.83;;;15.10;;
8556;SDS011;4316;53.840;10.762;2022-12-18T07:06:23;30.40;;;14.87;;
8556;SDS011;4316;53.840;10.762;2022-12-18T07:08:51;28.30;;;14.97;;
8556;SDS011;4316;53.840;10.762;2022-12-18T07:11:17;24.30;;;14.30;;
8556;SDS011;4316;53.840;10.762;2022-12-18T07:13:43;31.13;;;16.50;;
8556;SDS011;4316;53.840;10.762;2022-12-18T07:16:13;25.37;;;14.67;;
8556;SDS011;4316;53.840;10.762;2022-12-18T07:18:40;28.73;;;15.60;;
8556;SDS011;4316;53.840;10.762;2022-12-18T07:21:07;28.93;;;14.80;;
8556;SDS011;4316;53.840;10.762;2022-12-18T07:23:34;26.33;;;14.00;;
8556;SDS011;4316;53.840;10.762;2022-12-18T07:26:07;27.00;;;14.77;;
8556;SDS011;4316;53.840;10.762;2022-12-18T07:28:37;30.17;;;15.23;;
8556;SDS011;4316;53.840;10.762;2022-12-18T07:31:08;30.17;;;15.63;;
8556;SDS011;4316;53.840;10.762;2022-12-18T07:33:36;27.00;;;15.70;;
8556;SDS011;4316;53.840;10.762;2022-12-18T07:36:02;25.10;;;15.10;;
8556;SDS011;4316;53.840;10.762;2022-12-18T07:38:29;27.77;;;14.93;;
8556;SDS011;4316;53.840;10.762;2022-12-18T07:41:06;28.53;;;16.47;;
8556;SDS011;4316;53.840;10.762;2022-12-18T07:43:37;28.90;;;15.77;;
8556;SDS011;4316;53.840;10.762;2022-12-18T07:46:03;27.23;;;15.50;;
8556;SDS011;4316;53.840;10.762;2022-12-18T07:48:30;31.20;;;15.80;;
8556;SDS011;4316;53.840;10.762;2022-12-18T07:51:02;26.67;;;13.83;;
8556;SDS011;4316;53.840;10.762;2022-12-18T07:53:29;28.53;;;14.37;;
8556;SDS011;4316;53.840;10.762;2022-12-18T07:55:56;24.63;;;13.40;;
8556;SDS011;4316;53.840;10.762;2022-12-18T07:58:22;21.70;;;13.60;;
8556;SDS011;4316;53.840;10.762;2022-12-18T08:00:48;25.83;;;15.33;;
8556;SDS011;4316;53.840;10.762;2022-12-18T08:03:13;28.00;;;14.60;;
8556;SDS011;4316;53.840;10.762;2022-12-18T08:05:39;25.67;;;14.80;;
8556;SDS011;4316;53.840;10.762;2022-12-18T08:08:04;29.50;;;14.90;;
8556;SDS011;4316;53.840;10.762;2022-12-18T08:10:30;25.47;;;14.47;;
8556;SDS011;4316;53.840;10.762;2022-12-18T08:12:55;28.77;;;15.07;;
8556;SDS011;4316;53.840;10.762;2022-12-18T08:15:21;35.10;;;16.30;;
8556;SDS011;4316;53.840;10.762;2022-12-18T08:17:47;23.23;;;13.50;;
8556;SDS011;4316;53.840;10.762;2022-12-18T08:20:13;27.87;;;14.03;;
8556;SDS011;4316;53.840;10.762;2022-12-18T08:22:40;25.27;;;16.10;;
8556;SDS011;4316;53.840;10.762;2022-12-18T08:25:06;25.80;;;14.03;;
8556;SDS011;4316;53.840;10.762;2022-12-18T08:27:32;30.53;;;16.33;;
8556;SDS011;4316;53.840;10.762;2022-12-18T08:29:58;29.20;;;15.17;;
8556;SDS011;4316;53.840;10.762;2022-12-18T08:32:25;29.87;;;17.40;;
8556;SDS011;4316;53.840;10.762;2022-12-18T08:34:51;26.83;;;15.40;;
8556;SDS011;4316;53.840;10.762;2022-12-18T08:37:16;24.03;;;13.63;;
8556;SDS011;4316;53.840;10.762;2022-12-18T08:39:42;27.67;;;14.97;;
8556;SDS011;4316;53.840;10.762;2022-12-18T08:42:07;29.07;;;16.23;;
8556;SDS011;4316;53.840;10.762;2022-12-18T08:44:51;30.47;;;17.50;;
8556;SDS011;4316;53.840;10.762;2022-12-18T08:47:17;25.07;;;14.20;;
8556;SDS011;4316;53.840;10.762;2022-12-18T08:49:43;27.37;;;15.03;;
8556;SDS011;4316;53.840;10.762;2022-12-18T08:52:08;25.20;;;15.07;;
8556;SDS011;4316;53.840;10.762;2022-12-18T08:54:34;23.87;;;13.43;;
8556;SDS011;4316;53.840;10.762;2022-12-18T08:56:59;23.90;;;14.00;;
8556;SDS011;4316;53.840;10.762;2022-12-18T08:59:28;23.47;;;13.70;;
8556;SDS011;4316;53.840;10.762;2022-12-18T09:01:54;25.60;;;14.43;;
8556;SDS011;4316;53.840;10.762;2022-12-18T09:04:20;24.73;;;13.20;;
8556;SDS011;4316;53.840;10.762;2022-12-18T09:06:46;26.53;;;15.00;;
8556;SDS011;4316;53.840;10.762;2022-12-18T09:09:12;28.13;;;14.47;;
8556;SDS011;4316;53.840;10.762;2022-12-18T09:11:38;23.00;;;14.33;;
8556;SDS011;4316;53.840;10.762;2022-12-18T09:14:04;27.77;;;15.17;;
8556;SDS011;4316;53.840;10.762;2022-12-18T09:16:30;21.40;;;13.27;;
8556;SDS011;4316;53.840;10.762;2022-12-18T09:18:57;23.40;;;15.17;;
8556;SDS011;4316;53.840;10.762;2022-12-18T09:21:28;26.57;;;13.67;;
8556;SDS011;4316;53.840;10.762;2022-12-18T09:23:56;27.37;;;13.73;;
8556;SDS011;4316;53.840;10.762;2022-12-18T09:26:22;19.13;;;9.77;;
8556;SDS011;4316;53.840;10.762;2022-12-18T09:28:48;23.40;;;13.23;;
8556;SDS011;4316;53.840;10.762;2022-12-18T09:31:14;26.43;;;13.20;;
8556;SDS011;4316;53.840;10.762;2022-12-18T09:33:40;23.53;;;13.83;;
8556;SDS011;4316;53.840;10.762;2022-12-18T09:36:07;25.43;;;14.27;;
8556;SDS011;4316;53.840;10.762;2022-12-18T09:38:34;22.93;;;13.60;;
8556;SDS011;4316;53.840;10.762;2022-12-18T09:41:03;25.07;;;14.77;;
8556;SDS011;4316;53.840;10.762;2022-12-18T09:43:40;20.47;;;12.63;;
8556;SDS011;4316;53.840;10.762;2022-12-18T09:46:15;20.77;;;13.07;;
8556;SDS011;4316;53.840;10.762;2022-12-18T09:48:52;23.53;;;13.17;;
8556;SDS011;4316;53.840;10.762;2022-12-18T09:51:56;23.93;;;13.50;;
8556;SDS011;4316;53.840;10.762;2022-12-18T09:54:18;23.50;;;12.13;;
8556;SDS011;4316;53.840;10.762;2022-12-18T09:56:47;24.63;;;13.63;;
8556;SDS011;4316;53.840;10.762;2022-12-18T09:59:29;19.10;;;11.97;;
8556;SDS011;4316;53.840;10.762;2022-12-18T10:01:58;20.60;;;12.97;;
8556;SDS011;4316;53.840;10.762;2022-12-18T10:04:32;21.50;;;13.23;;
8556;SDS011;4316;53.840;10.762;2022-12-18T10:09:42;22.93;;;11.97;;
8556;SDS011;4316;53.840;10.762;2022-12-18T10:17:41;23.90;;;13.50;;
8556;SDS011;4316;53.840;10.762;2022-12-18T10:26:18;22.77;;;12.83;;
8556;SDS011;4316;53.840;10.762;2022-12-18T10:28:45;22.43;;;13.53;;
8556;SDS011;4316;53.840;10.762;2022-12-18T10:31:15;22.97;;;13.33;;
8556;SDS011;4316;53.840;10.762;2022-12-18T10:33:45;23.90;;;12.63;;
8556;SDS011;4316;53.840;10.762;2022-12-18T10:36:11;18.97;;;12.33;;
8556;SDS011;4316;53.840;10.762;2022-12-18T10:38:37;21.33;;;13.10;;
8556;SDS011;4316;53.840;10.762;2022-12-18T10:41:04;22.83;;;14.57;;
8556;SDS011;4316;53.840;10.762;2022-12-18T10:43:39;26.70;;;14.17;;
8556;SDS011;4316;53.840;10.762;2022-12-18T10:51:06;24.17;;;14.83;;
8556;SDS011;4316;53.840;10.762;2022-12-18T10:53:34;22.97;;;13.27;;
8556;SDS011;4316;53.840;10.762;2022-12-18T10:56:06;22.27;;;13.47;;
8556;SDS011;4316;53.840;10.762;2022-12-18T10:58:44;23.67;;;13.13;;
8556;SDS011;4316;53.840;10.762;2022-12-18T11:01:25;22.30;;;12.27;;
8556;SDS011;4316;53.840;10.762;2022-12-18T11:06:22;23.27;;;13.67;;
8556;SDS011;4316;53.840;10.762;2022-12-18T11:09:02;31.00;;;18.47;;
8556;SDS011;4316;53.840;10.762;2022-12-18T11:11:29;27.33;;;14.47;;
8556;SDS011;4316;53.840;10.762;2022-12-18T11:14:04;27.07;;;14.67;;
8556;SDS011;4316;53.840;10.762;2022-12-18T11:16:42;21.90;;;13.00;;
8556;SDS011;4316;53.840;10.762;2022-12-18T11:19:21;16.87;;;7.83;;
8556;SDS011;4316;53.840;10.762;2022-12-18T11:21:55;23.23;;;13.90;;
8556;SDS011;4316;53.840;10.762;2022-12-18T11:24:24;24.27;;;13.37;;
8556;SDS011;4316;53.840;10.762;2022-12-18T11:26:54;22.47;;;14.43;;
8556;SDS011;4316;53.840;10.762;2022-12-18T11:29:29;19.97;;;12.73;;
8556;SDS011;4316;53.840;10.762;2022-12-18T11:32:20;25.97;;;14.90;;
8556;SDS011;4316;53.840;10.762;2022-12-18T11:34:54;20.10;;;12.10;;
8556;SDS011;4316;53.840;10.762;2022-12-18T11:37:31;26.23;;;14.20;;
8556;SDS011;4316;53.840;10.762;2022-12-18T11:39:59;22.83;;;14.33;;
8556;SDS011;4316;53.840;10.762;2022-12-18T11:45:15;23.40;;;13.97;;
8556;SDS011;4316;53.840;10.762;2022-12-18T11:50:44;26.30;;;15.07;;
8556;SDS011;4316;53.840;10.762;2022-12-18T11:53:22;24.30;;;14.30;;
8556;SDS011;4316;53.840;10.762;2022-12-18T11:56:00;25.40;;;14.00;;
8556;SDS011;4316;53.840;10.762;2022-12-18T11:58:37;24.67;;;13.30;;
8556;SDS011;4316;53.840;10.762;2022-12-18T12:09:21;25.37;;;14.10;;
8556;SDS011;4316;53.840;10.762;2022-12-18T12:31:00;24.57;;;14.87;;
8556;SDS011;4316;53.840;10.762;2022-12-18T12:33:52;27.60;;;12.93;;
8556;SDS011;4316;53.840;10.762;2022-12-18T12:36:31;22.40;;;14.23;;
8556;SDS011;4316;53.840;10.762;2022-12-18T12:39:21;27.30;;;15.70;;
8556;SDS011;4316;53.840;10.762;2022-12-18T12:41:54;24.93;;;13.13;;
8556;SDS011;4316;53.840;10.762;2022-12-18T12:44:41;28.73;;;15.00;;
8556;SDS011;4316;53.840;10.762;2022-12-18T12:47:13;25.03;;;14.73;;
8556;SDS011;4316;53.840;10.762;2022-12-18T12:49:45;25.93;;;13.87;;
8556;SDS011;4316;53.840;10.762;2022-12-18T12:52:55;27.50;;;15.43;;
8556;SDS011;4316;53.840;10.762;2022-12-18T12:55:05;25.30;;;14.93;;
8556;SDS011;4316;53.840;10.762;2022-12-18T13:00:18;26.27;;;16.03;;
8556;SDS011;4316;53.840;10.762;2022-12-18T13:08:23;27.53;;;15.83;;
8556;SDS011;4316;53.840;10.762;2022-12-18T13:10:49;33.47;;;17.10;;
8556;SDS011;4316;53.840;10.762;2022-12-18T13:13:48;31.17;;;18.17;;
8556;SDS011;4316;53.840;10.762;2022-12-18T13:16:13;33.03;;;17.93;;
8556;SDS011;4316;53.840;10.762;2022-12-18T13:18:51;38.83;;;19.60;;
8556;SDS011;4316;53.840;10.762;2022-12-18T13:21:26;27.53;;;16.30;;
8556;SDS011;4316;53.840;10.762;2022-12-18T13:24:14;26.70;;;15.60;;
8556;SDS011;4316;53.840;10.762;2022-12-18T13:26:47;24.13;;;14.23;;
8556;SDS011;4316;53.840;10.762;2022-12-18T13:29:15;29.17;;;16.70;;
8556;SDS011;4316;53.840;10.762;2022-12-18T13:32:19;47.33;;;21.53;;
8556;SDS011;4316;53.840;10.762;2022-12-18T13:37:51;29.10;;;15.60;;
8556;SDS011;4316;53.840;10.762;2022-12-18T13:43:20;29.93;;;15.83;;
8556;SDS011;4316;53.840;10.762;2022-12-18T13:45:58;35.27;;;17.97;;
8556;SDS011;4316;53.840;10.762;2022-12-18T13:48:25;33.77;;;18.13;;
8556;SDS011;4316;53.840;10.762;2022-12-18T13:50:53;31.40;;;15.60;;
8556;SDS011;4316;53.840;10.762;2022-12-18T13:53:39;34.70;;;17.70;;
8556;SDS011;4316;53.840;10.762;2022-12-18T13:56:09;35.43;;;17.27;;
8556;SDS011;4316;53.840;10.762;2022-12-18T13:58:44;29.70;;;15.70;;
8556;SDS011;4316;53.840;10.762;2022-12-18T14:01:22;34.03;;;16.57;;
8556;SDS011;4316;53.840;10.762;2022-12-18T14:04:07;33.83;;;17.33;;
8556;SDS011;4316;53.840;10.762;2022-12-18T14:06:34;39.53;;;17.67;;
8556;SDS011;4316;53.840;10.762;2022-12-18T14:09:00;34.43;;;15.77;;
8556;SDS011;4316;53.840;10.762;2022-12-18T14:11:27;31.73;;;15.57;;
8556;SDS011;4316;53.840;10.762;2022-12-18T14:13:57;35.63;;;17.93;;
8556;SDS011;4316;53.840;10.762;2022-12-18T14:16:22;32.73;;;16.50;;
8556;SDS011;4316;53.840;10.762;2022-12-18T14:21:27;32.50;;;17.83;;
8556;SDS011;4316;53.840;10.762;2022-12-18T14:24:05;36.73;;;19.50;;
8556;SDS011;4316;53.840;10.762;2022-12-18T14:26:31;36.87;;;18.33;;
8556;SDS011;4316;53.840;10.762;2022-12-18T14:28:59;35.27;;;18.80;;
8556;SDS011;4316;53.840;10.762;2022-12-18T14:31:28;34.53;;;18.60;;
8556;SDS011;4316;53.840;10.762;2022-12-18T14:33:55;40.93;;;19.53;;
8556;SDS011;4316;53.840;10.762;2022-12-18T14:36:24;41.53;;;18.80;;
8556;SDS011;4316;53.840;10.762;2022-12-18T14:38:55;35.37;;;18.70;;
8556;SDS011;4316;53.840;10.762;2022-12-18T14:41:23;34.73;;;17.37;;
8556;SDS011;4316;53.840;10.762;2022-12-18T14:43:50;37.03;;;18.73;;
8556;SDS011;4316;53.840;10.762;2022-12-18T14:49:17;35.97;;;17.73;;
8556;SDS011;4316;53.840;10.762;2022-12-18T14:51:54;28.50;;;16.30;;
8556;SDS011;4316;53.840;10.762;2022-12-18T14:54:22;34.07;;;17.70;;
8556;SDS011;4316;53.840;10.762;2022-12-18T14:56:54;32.80;;;18.67;;
8556;SDS011;4316;53.840;10.762;2022-12-18T14:59:26;40.03;;;18.10;;
8556;SDS011;4316;53.840;10.762;2022-12-18T15:04:37;39.70;;;22.10;;
8556;SDS011;4316;53.840;10.762;2022-12-18T15:07:11;37.80;;;20.20;;
8556;SDS011;4316;53.840;10.762;2022-12-18T15:09:44;42.03;;;19.73;;
8556;SDS011;4316;53.840;10.762;2022-12-18T15:12:27;34.90;;;17.67;;
8556;SDS011;4316;53.840;10.762;2022-12-18T15:15:02;36.67;;;18.73;;
8556;SDS011;4316;53.840;10.762;2022-12-18T15:17:28;39.13;;;21.03;;
8556;SDS011;4316;53.840;10.762;2022-12-18T15:20:01;35.80;;;21.37;;
8556;SDS011;4316;53.840;10.762;2022-12-18T15:22:34;40.10;;;20.73;;
8556;SDS011;4316;53.840;10.762;2022-12-18T15:25:02;39.37;;;18.20;;
8556;SDS011;4316;53.840;10.762;2022-12-18T15:27:46;34.97;;;19.87;;
8556;SDS011;4316;53.840;10.762;2022-12-18T15:32:44;38.77;;;19.10;;
8556;SDS011;4316;53.840;10.762;2022-12-18T15:37:39;36.10;;;20.33;;
8556;SDS011;4316;53.840;10.762;2022-12-18T15:40:05;34.17;;;19.37;;
8556;SDS011;4316;53.840;10.762;2022-12-18T15:42:33;39.10;;;20.67;;
8556;SDS011;4316;53.840;10.762;2022-12-18T15:45:18;47.23;;;21.67;;
8556;SDS011;4316;53.840;10.762;2022-12-18T15:47:43;34.93;;;18.13;;
8556;SDS011;4316;53.840;10.762;2022-12-18T15:50:09;33.23;;;18.60;;
8556;SDS011;4316;53.840;10.762;2022-12-18T15:52:42;35.73;;;20.97;;
8556;SDS011;4316;53.840;10.762;2022-12-18T15:55:13;40.77;;;19.50;;
8556;SDS011;4316;53.840;10.762;2022-12-18T15:57:59;36.73;;;17.47;;
8556;SDS011;4316;53.840;10.762;2022-12-18T16:00:25;35.57;;;17.60;;
8556;SDS011;4316;53.840;10.762;2022-12-18T16:02:51;34.87;;;17.80;;
8556;SDS011;4316;53.840;10.762;2022-12-18T16:05:17;29.00;;;18.03;;
8556;SDS011;4316;53.840;10.762;2022-12-18T16:07:44;30.27;;;15.80;;
8556;SDS011;4316;53.840;10.762;2022-12-18T16:10:10;36.63;;;18.03;;
8556;SDS011;4316;53.840;10.762;2022-12-18T16:12:36;33.13;;;16.97;;
8556;SDS011;4316;53.840;10.762;2022-12-18T16:15:02;33.67;;;18.60;;
8556;SDS011;4316;53.840;10.762;2022-12-18T16:17:28;36.23;;;20.60;;
8556;SDS011;4316;53.840;10.762;2022-12-18T16:19:53;33.13;;;18.40;;
8556;SDS011;4316;53.840;10.762;2022-12-18T16:22:20;25.50;;;15.23;;
8556;SDS011;4316;53.840;10.762;2022-12-18T16:24:48;32.83;;;19.13;;
8556;SDS011;4316;53.840;10.762;2022-12-18T16:27:15;29.33;;;17.20;;
8556;SDS011;4316;53.840;10.762;2022-12-18T16:29:41;31.93;;;16.30;;
8556;SDS011;4316;53.840;10.762;2022-12-18T16:32:06;38.73;;;16.97;;
8556;SDS011;4316;53.840;10.762;2022-12-18T16:34:36;41.57;;;21.80;;